createdAt,value
2018-09-14T00:01:10.157Z,96928.59
2018-09-14T00:04:34.813Z,96928.38
2018-09-14T00:07:59.516Z,96923.27
2018-09-14T00:11:24.178Z,96922.25
2018-09-14T00:14:48.883Z,96918.12
2018-09-14T00:18:13.579Z,96919.20
2018-09-14T00:21:38.270Z,96928.55
2018-09-14T00:25:02.908Z,96920.98
2018-09-14T00:28:28.585Z,96914.66
2018-09-14T00:31:53.257Z,96920.52
2018-09-14T00:35:18.033Z,96914.90
2018-09-14T00:38:42.711Z,96910.53
2018-09-14T00:42:07.471Z,96915.00
2018-09-14T00:45:32.173Z,96906.92
2018-09-14T00:48:57.915Z,96909.70
2018-09-14T00:52:22.544Z,96902.66
2018-09-14T00:55:47.302Z,96907.23
2018-09-14T00:59:12.030Z,96910.80
2018-09-14T01:02:36.814Z,96907.48
2018-09-14T01:06:01.460Z,96907.87
2018-09-14T01:09:28.223Z,96910.58
2018-09-14T01:12:52.869Z,96907.74
2018-09-14T01:16:17.539Z,96902.89
2018-09-14T01:19:42.163Z,96906.80
2018-09-14T01:23:06.863Z,96911.84
2018-09-14T01:26:31.600Z,96913.25
2018-09-14T01:29:56.899Z,96913.76
2018-09-14T01:33:22.167Z,96909.30
2018-09-14T01:36:46.856Z,96918.12
2018-09-14T01:40:11.517Z,96910.60
2018-09-14T01:43:36.183Z,96908.34
2018-09-14T01:47:00.821Z,96911.92
2018-09-14T01:50:25.549Z,96910.80
2018-09-14T01:53:50.247Z,96908.48
2018-09-14T01:57:14.983Z,96908.47
2018-09-14T02:00:39.647Z,96913.08
2018-09-14T02:04:04.365Z,96901.74
2018-09-14T02:07:29.030Z,96912.85
2018-09-14T02:10:53.786Z,96905.37
2018-09-14T02:14:18.479Z,96908.04
2018-09-14T02:17:43.224Z,96905.19
2018-09-14T02:21:07.879Z,96905.98
2018-09-14T02:24:32.621Z,96903.34
2018-09-14T02:27:58.060Z,96907.87
2018-09-14T02:31:22.859Z,96910.77
2018-09-14T02:34:47.523Z,96906.98
2018-09-14T02:38:12.239Z,96904.63
2018-09-14T02:41:37.145Z,96901.04
2018-09-14T02:45:01.891Z,96904.66
2018-09-14T02:48:26.635Z,96899.63
2018-09-14T02:51:51.339Z,96904.88
2018-09-14T02:55:16.199Z,96899.02
2018-09-14T02:58:40.939Z,96902.79
2018-09-14T03:02:05.237Z,96903.56
2018-09-14T03:05:29.909Z,96907.20
2018-09-14T03:08:54.583Z,96911.80
2018-09-14T03:12:19.270Z,96914.93
2018-09-14T03:15:43.947Z,96911.45
2018-09-14T03:19:08.618Z,96910.61
2018-09-14T03:22:33.347Z,96909.48
2018-09-14T03:25:58.038Z,96913.69
2018-09-14T03:29:22.826Z,96912.67
2018-09-14T03:32:47.527Z,96911.02
2018-09-14T03:36:12.170Z,96910.28
2018-09-14T03:39:36.887Z,96904.97
2018-09-14T03:43:01.582Z,96905.45
2018-09-14T03:46:26.273Z,96902.94
2018-09-14T03:49:51.059Z,96896.99
2018-09-14T03:53:15.717Z,96897.95
2018-09-14T03:56:40.501Z,96896.05
2018-09-14T04:00:05.293Z,96897.43
2018-09-14T04:03:29.983Z,96892.96
2018-09-14T04:06:54.714Z,96891.75
2018-09-14T04:10:19.398Z,96902.88
2018-09-14T04:13:44.050Z,96901.61
2018-09-14T04:17:08.740Z,96909.57
2018-09-14T04:20:33.480Z,96904.22
2018-09-14T04:23:58.323Z,96906.95
2018-09-14T04:27:23.010Z,96912.02
2018-09-14T04:30:47.864Z,96912.36
2018-09-14T04:34:12.521Z,96909.81
2018-09-14T04:37:37.181Z,96917.97
2018-09-14T04:41:01.889Z,96916.16
2018-09-14T04:44:26.576Z,96917.55
2018-09-14T04:47:51.249Z,96913.89
2018-09-14T04:51:16.018Z,96921.09
2018-09-14T04:54:40.647Z,96923.41
2018-09-14T04:58:05.605Z,96926.86
2018-09-14T05:01:30.330Z,96921.27
2018-09-14T05:04:55.191Z,96928.81
2018-09-14T05:08:20.184Z,96927.79
2018-09-14T05:11:45.187Z,96930.89
2018-09-14T05:15:09.928Z,96935.16
2018-09-14T05:18:34.649Z,96934.24
2018-09-14T05:21:59.393Z,96941.69
2018-09-14T05:25:24.116Z,96941.28
2018-09-14T05:28:48.880Z,96936.05
2018-09-14T05:32:13.587Z,96944.51
2018-09-14T05:37:02.734Z,96943.19
2018-09-14T05:40:27.410Z,96940.00
2018-09-14T05:43:52.057Z,96948.45
2018-09-14T05:47:16.788Z,96941.55
2018-09-14T05:50:41.454Z,96940.75
2018-09-14T05:54:06.160Z,96948.31
2018-09-14T05:57:30.897Z,96950.96
2018-09-14T06:00:55.699Z,96954.34
2018-09-14T06:04:20.370Z,96961.08
2018-09-14T06:07:45.042Z,96961.56
2018-09-14T06:11:09.814Z,96962.83
2018-09-14T06:14:34.793Z,96956.16
2018-09-14T06:17:59.442Z,96961.69
2018-09-14T06:21:24.086Z,96964.12
2018-09-14T06:24:48.791Z,96961.78
2018-09-14T06:28:13.534Z,96961.90
2018-09-14T06:31:38.341Z,96965.70
2018-09-14T06:35:03.036Z,96973.20
2018-09-14T06:38:27.681Z,96962.91
2018-09-14T06:41:52.435Z,96971.95
2018-09-14T06:45:17.188Z,96961.23
2018-09-14T06:48:41.896Z,96972.02
2018-09-14T06:52:06.796Z,96968.74
2018-09-14T06:55:31.495Z,96967.36
2018-09-14T06:58:56.167Z,96967.94
2018-09-14T07:02:22.996Z,96967.82
2018-09-14T07:05:47.718Z,96968.48
2018-09-14T07:09:12.450Z,96970.21
2018-09-14T07:12:37.120Z,96974.02
2018-09-14T07:16:01.870Z,96974.73
2018-09-14T07:19:26.681Z,96974.27
2018-09-14T07:22:52.544Z,96981.13
2018-09-14T07:26:17.386Z,96984.45
2018-09-14T07:29:42.128Z,96987.09
2018-09-14T07:33:06.972Z,96993.55
2018-09-14T07:36:31.772Z,96993.92
2018-09-14T07:39:56.500Z,97002.69
2018-09-14T07:43:21.253Z,97004.13
2018-09-14T07:46:46.004Z,97002.00
2018-09-14T07:50:10.702Z,97001.04
2018-09-14T07:53:35.519Z,97006.22
2018-09-14T07:57:00.147Z,97013.47
2018-09-14T08:00:24.846Z,97014.27
2018-09-14T08:03:49.604Z,97015.53
2018-09-14T08:07:14.414Z,97017.19
2018-09-14T08:10:39.253Z,97012.02
2018-09-14T08:14:04.149Z,97011.89
2018-09-14T08:17:29.978Z,97015.02
2018-09-14T08:20:54.795Z,97019.75
2018-09-14T08:24:19.478Z,97016.84
2018-09-14T08:27:44.234Z,97021.66
2018-09-14T08:31:08.988Z,97030.74
2018-09-14T08:34:33.883Z,97035.52
2018-09-14T08:37:58.508Z,97036.00
2018-09-14T08:41:23.248Z,97034.25
2018-09-14T08:44:47.906Z,97038.30
2018-09-14T08:48:12.620Z,97032.20
2018-09-14T08:51:37.345Z,97038.20
2018-09-14T08:55:02.016Z,97041.66
2018-09-14T08:58:26.657Z,97042.73
2018-09-14T09:01:51.346Z,97037.09
2018-09-14T09:05:16.014Z,97039.03
2018-09-14T09:08:40.678Z,97034.73
2018-09-14T09:12:05.414Z,97037.83
2018-09-14T09:15:30.178Z,97038.49
2018-09-14T09:18:54.879Z,97044.66
2018-09-14T09:22:19.649Z,97040.84
2018-09-14T09:25:44.370Z,97034.48
2018-09-14T09:29:09.049Z,97037.81
2018-09-14T09:32:33.846Z,97034.77
2018-09-14T09:35:58.507Z,97034.25
2018-09-14T09:39:23.276Z,97035.80
2018-09-14T09:42:47.998Z,97024.45
2018-09-14T09:46:12.799Z,97025.30
2018-09-14T09:49:37.604Z,97030.66
2018-09-14T09:53:02.430Z,97026.14
2018-09-14T09:57:51.610Z,97024.67
2018-09-14T10:01:21.661Z,97031.42
2018-09-14T10:05:53.087Z,97037.88
2018-09-14T10:09:17.756Z,97030.04
2018-09-14T10:12:42.417Z,97029.03
2018-09-14T10:16:07.150Z,97034.21
2018-09-14T10:19:31.814Z,97032.63
2018-09-14T10:22:56.472Z,97031.59
2018-09-14T10:26:21.277Z,97032.11
2018-09-14T10:29:46.001Z,97035.95
2018-09-14T10:33:10.757Z,97038.33
2018-09-14T10:36:35.503Z,97030.81
2018-09-14T10:40:00.175Z,97031.46
2018-09-14T10:43:24.884Z,97034.73
2018-09-14T10:46:49.589Z,97023.20
2018-09-14T10:50:14.519Z,97022.84
2018-09-14T10:53:39.295Z,97017.95
2018-09-14T10:57:04.359Z,97012.09
2018-09-14T11:00:28.983Z,97013.70
2018-09-14T11:03:53.741Z,97003.42
2018-09-14T11:07:18.450Z,97004.83
2018-09-14T11:10:43.713Z,97005.55
2018-09-14T11:14:08.716Z,96994.51
2018-09-14T11:17:33.339Z,96999.77
2018-09-14T11:20:57.976Z,97004.86
2018-09-14T11:24:22.762Z,96996.30
2018-09-14T11:27:48.168Z,97003.45
2018-09-14T11:31:12.820Z,96994.72
2018-09-14T11:34:37.477Z,96994.78
2018-09-14T11:38:02.309Z,96989.86
2018-09-14T11:41:27.090Z,96990.83
2018-09-14T11:44:53.132Z,96992.25
2018-09-14T11:48:18.023Z,96986.98
2018-09-14T11:57:38.688Z,96986.57
2018-09-14T12:01:05.790Z,96966.91
2018-09-14T12:04:30.534Z,96969.91
2018-09-14T12:07:55.394Z,96967.98
2018-09-14T12:11:20.124Z,96962.84
2018-09-14T12:14:44.830Z,96964.58
2018-09-14T12:18:09.448Z,96966.70
2018-09-14T12:21:34.150Z,96962.38
2018-09-14T12:24:58.822Z,96960.31
2018-09-14T12:28:23.554Z,96954.94
2018-09-14T12:31:48.480Z,96957.66
2018-09-14T12:35:13.120Z,96961.16
2018-09-14T12:38:37.780Z,96962.00
2018-09-14T12:42:02.418Z,96951.45
2018-09-14T12:45:27.119Z,96946.47
2018-09-14T12:48:51.979Z,96944.89
2018-09-14T12:52:16.665Z,96938.22
2018-09-14T12:55:41.312Z,96937.70
2018-09-14T12:59:05.972Z,96931.16
2018-09-14T13:02:30.668Z,96932.16
2018-09-14T13:05:56.083Z,96925.65
2018-09-14T13:09:21.965Z,96924.88
2018-09-14T13:12:46.680Z,96920.11
2018-09-14T13:16:11.330Z,96917.11
2018-09-14T13:19:35.986Z,96914.82
2018-09-14T13:23:00.665Z,96913.73
2018-09-14T13:26:25.406Z,96907.77
2018-09-14T13:29:50.147Z,96905.32
2018-09-14T13:33:14.789Z,96902.47
2018-09-14T13:36:39.466Z,96905.12
2018-09-14T13:40:04.205Z,96903.05
2018-09-14T13:43:28.890Z,96904.27
2018-09-14T13:46:53.470Z,96902.95
2018-09-14T13:50:18.148Z,96903.16
2018-09-14T13:53:43.839Z,96903.94
2018-09-14T13:57:08.450Z,96899.91
2018-09-14T14:00:33.125Z,96898.76
2018-09-14T14:03:57.796Z,96900.52
2018-09-14T14:07:23.567Z,96899.74
2018-09-14T14:10:48.770Z,96897.09
2018-09-14T14:14:13.836Z,96894.71
2018-09-14T14:17:39.405Z,96892.11
2018-09-14T14:21:05.590Z,96894.97
2018-09-14T14:24:30.434Z,96905.16
2018-09-14T14:27:55.214Z,96891.59
2018-09-14T14:31:19.989Z,96893.13
2018-09-14T14:34:44.653Z,96891.23
2018-09-14T14:38:09.343Z,96887.23
2018-09-14T14:41:34.037Z,96888.80
2018-09-14T14:44:58.764Z,96891.44
2018-09-14T14:48:23.562Z,96878.84
2018-09-14T14:51:48.294Z,96886.00
2018-09-14T14:55:14.250Z,96881.57
2018-09-14T14:58:38.897Z,96879.68
2018-09-14T15:02:03.523Z,96875.80
2018-09-14T15:05:28.286Z,96883.98
2018-09-14T15:08:53.113Z,96884.66
2018-09-14T15:12:18.864Z,96879.21
2018-09-14T15:15:43.557Z,96885.50
2018-09-14T15:19:08.314Z,96881.50
2018-09-14T15:22:32.938Z,96880.70
2018-09-14T15:25:57.628Z,96882.20
2018-09-14T15:29:22.294Z,96887.77
2018-09-14T15:32:46.954Z,96887.67
2018-09-14T15:36:11.655Z,96883.78
2018-09-14T15:39:36.372Z,96882.42
2018-09-14T15:43:02.106Z,96883.74
2018-09-14T15:46:26.865Z,96884.28
2018-09-14T15:49:51.496Z,96893.03
2018-09-14T15:53:16.213Z,96887.95
2018-09-14T15:56:40.923Z,96884.04
2018-09-14T16:00:06.604Z,96890.22
2018-09-14T16:03:31.304Z,96886.53
2018-09-14T16:06:56.012Z,96888.00
2018-09-14T16:10:20.734Z,96890.72
2018-09-14T16:13:45.346Z,96898.80
2018-09-14T16:17:10.174Z,96893.34
2018-09-14T16:21:59.233Z,96896.72
2018-09-14T16:25:24.140Z,96899.64
2018-09-14T16:28:48.840Z,96894.64
2018-09-14T16:32:13.518Z,96892.02
2018-09-14T16:35:38.170Z,96901.97
2018-09-14T16:39:02.925Z,96899.67
2018-09-14T16:42:27.662Z,96901.70
2018-09-14T16:45:52.330Z,96893.80
2018-09-14T16:49:25.324Z,96903.56
2018-09-14T16:52:50.011Z,96903.36
2018-09-14T16:56:14.746Z,96905.01
2018-09-14T16:59:39.565Z,96902.30
2018-09-14T17:03:04.274Z,96908.23
2018-09-14T17:06:28.980Z,96903.92
2018-09-14T17:09:54.624Z,96903.62
2018-09-14T17:13:19.320Z,96904.59
2018-09-14T17:16:44.087Z,96907.33
2018-09-14T17:20:08.875Z,96912.59
2018-09-14T17:23:33.604Z,96913.75
2018-09-14T17:26:58.379Z,96915.81
2018-09-14T17:30:23.198Z,96919.22
2018-09-14T17:33:47.907Z,96925.33
2018-09-14T17:37:12.645Z,96934.67
2018-09-14T17:40:37.411Z,96933.80
2018-09-14T17:44:03.325Z,96939.05
2018-09-14T17:47:28.017Z,96942.45
2018-09-14T17:50:52.845Z,96938.05
2018-09-14T17:54:17.592Z,96942.27
2018-09-14T17:57:42.533Z,96944.64
2018-09-14T18:01:07.601Z,96953.01
2018-09-14T18:08:08.019Z,96957.95
2018-09-14T18:11:32.880Z,96958.38
2018-09-14T18:14:57.859Z,96962.55
2018-09-14T18:18:22.576Z,96976.46
2018-09-14T18:21:47.317Z,96976.98
2018-09-14T18:25:12.012Z,96978.24
2018-09-14T18:28:36.846Z,96987.08
2018-09-14T18:32:02.811Z,96983.70
2018-09-14T18:35:27.795Z,96987.17
2018-09-14T18:38:53.179Z,96987.53
2018-09-14T18:42:18.115Z,96992.95
2018-09-14T18:45:42.803Z,96991.95
2018-09-14T18:49:08.278Z,96994.23
2018-09-14T18:52:33.086Z,97006.31
2018-09-14T18:55:57.811Z,97016.03
2018-09-14T18:59:22.710Z,97017.27
2018-09-14T19:02:47.475Z,97010.72
2018-09-14T19:06:13.755Z,97014.19
2018-09-14T19:09:38.426Z,97019.05
2018-09-14T19:13:03.255Z,97023.20
2018-09-14T19:16:28.065Z,97034.38
2018-09-14T19:19:52.963Z,97034.14
2018-09-14T19:23:17.640Z,97031.84
2018-09-14T19:26:42.471Z,97031.48
2018-09-14T19:30:07.199Z,97042.28
2018-09-14T19:33:31.974Z,97043.83
2018-09-14T19:36:56.712Z,97038.03
2018-09-14T19:40:21.432Z,97039.05
2018-09-14T19:43:46.138Z,97038.52
2018-09-14T19:47:10.953Z,97051.75
2018-09-14T19:50:35.668Z,97049.84
2018-09-14T19:54:00.369Z,97053.38
2018-09-14T19:57:25.104Z,97051.72
2018-09-14T20:00:50.110Z,97048.46
2018-09-14T20:04:14.810Z,97055.03
2018-09-14T20:07:39.482Z,97052.77
2018-09-14T20:11:04.218Z,97049.93
2018-09-14T20:14:28.986Z,97048.14
2018-09-14T20:17:53.752Z,97051.32
2018-09-14T20:21:18.384Z,97047.64
2018-09-14T20:24:43.192Z,97051.69
2018-09-14T20:28:07.894Z,97052.41
2018-09-14T20:31:32.619Z,97051.33
2018-09-14T20:34:57.358Z,97045.00
2018-09-14T20:38:22.055Z,97043.92
2018-09-14T20:41:47.004Z,97046.78
2018-09-14T20:45:11.714Z,97044.16
2018-09-14T20:48:36.570Z,97051.94
2018-09-14T20:52:03.002Z,97054.09
2018-09-14T20:55:29.387Z,97057.52
2018-09-14T20:58:55.830Z,97054.55
2018-09-14T21:02:22.167Z,97055.61
2018-09-14T21:05:48.297Z,97058.34
2018-09-14T21:09:13.865Z,97068.39
2018-09-14T21:12:38.977Z,97070.56
2018-09-14T21:16:04.197Z,97066.37
2018-09-14T21:19:29.318Z,97073.20
2018-09-14T21:22:54.430Z,97065.39
2018-09-14T21:26:19.892Z,97078.91
2018-09-14T21:29:45.145Z,97080.21
2018-09-14T21:33:10.314Z,97072.70
2018-09-14T21:36:36.920Z,97080.92
2018-09-14T21:40:02.236Z,97085.22
2018-09-14T21:43:27.476Z,97081.53
2018-09-14T21:46:52.721Z,97087.39
2018-09-14T21:50:18.185Z,97088.91
2018-09-14T21:53:43.713Z,97094.91
2018-09-14T21:57:09.428Z,97092.28
2018-09-14T22:00:39.834Z,97099.70
2018-09-14T22:04:04.991Z,97098.97
2018-09-14T22:07:30.536Z,97098.45
2018-09-14T22:10:56.045Z,97105.16
2018-09-14T22:14:21.260Z,97105.41
2018-09-14T22:17:47.032Z,97109.12
2018-09-14T22:21:12.693Z,97106.85
2018-09-14T22:24:37.650Z,97109.44
2018-09-14T22:28:02.339Z,97108.62
2018-09-14T22:31:27.071Z,97105.00
2018-09-14T22:34:51.758Z,97106.81
2018-09-14T22:38:16.477Z,97115.30
2018-09-14T22:41:41.296Z,97123.44
2018-09-14T22:45:06.310Z,97117.98
2018-09-14T22:48:30.942Z,97119.87
2018-09-14T22:51:55.745Z,97126.02
2018-09-14T22:55:20.430Z,97123.78
2018-09-14T22:58:45.065Z,97135.84
2018-09-14T23:02:09.814Z,97130.15
2018-09-14T23:05:34.471Z,97133.14
2018-09-14T23:08:59.108Z,97137.73
2018-09-14T23:12:23.740Z,97143.89
2018-09-14T23:15:59.973Z,97149.59
2018-09-14T23:19:24.620Z,97141.48
2018-09-14T23:22:49.363Z,97146.55
2018-09-14T23:26:17.610Z,97138.58
2018-09-14T23:29:42.299Z,97143.73
2018-09-14T23:33:06.942Z,97143.80
2018-09-14T23:36:31.626Z,97146.30
2018-09-14T23:39:56.270Z,97149.35
2018-09-14T23:43:20.944Z,97153.53
2018-09-14T23:46:46.626Z,97158.19
2018-09-14T23:50:11.263Z,97153.69
2018-09-14T23:53:35.903Z,97165.56
2018-09-14T23:57:00.566Z,97161.47
